sensor_id;sensor_type;location;lat;lon;timestamp;temperature;humidity
10171;DHT22;5127;50.922;6.988;2022-09-03T00:00:46;20.80;37.80
10171;DHT22;5127;50.922;6.988;2022-09-03T00:03:21;20.80;37.80
10171;DHT22;5127;50.922;6.988;2022-09-03T00:05:52;20.70;37.80
10171;DHT22;5127;50.922;6.988;2022-09-03T00:08:26;20.80;37.80
10171;DHT22;5127;50.922;6.988;2022-09-03T00:11:01;20.70;37.90
10171;DHT22;5127;50.922;6.988;2022-09-03T00:13:34;20.60;38.00
10171;DHT22;5127;50.922;6.988;2022-09-03T00:16:04;20.60;38.10
10171;DHT22;5127;50.922;6.988;2022-09-03T00:18:37;20.60;38.00
10171;DHT22;5127;50.922;6.988;2022-09-03T00:21:10;20.60;38.10
10171;DHT22;5127;50.922;6.988;2022-09-03T00:23:41;20.60;38.30
10171;DHT22;5127;50.922;6.988;2022-09-03T00:26:19;20.60;38.90
10171;DHT22;5127;50.922;6.988;2022-09-03T00:28:55;20.50;38.60
10171;DHT22;5127;50.922;6.988;2022-09-03T00:31:29;20.40;38.40
10171;DHT22;5127;50.922;6.988;2022-09-03T00:34:02;20.40;38.60
10171;DHT22;5127;50.922;6.988;2022-09-03T00:36:34;20.40;38.70
10171;DHT22;5127;50.922;6.988;2022-09-03T00:39:02;20.40;38.70
10171;DHT22;5127;50.922;6.988;2022-09-03T00:41:36;20.30;38.60
10171;DHT22;5127;50.922;6.988;2022-09-03T00:44:19;20.30;38.90
10171;DHT22;5127;50.922;6.988;2022-09-03T00:46:56;20.20;38.90
10171;DHT22;5127;50.922;6.988;2022-09-03T00:49:35;20.20;38.90
10171;DHT22;5127;50.922;6.988;2022-09-03T00:52:13;20.20;39.00
10171;DHT22;5127;50.922;6.988;2022-09-03T00:54:48;20.10;39.00
10171;DHT22;5127;50.922;6.988;2022-09-03T00:57:30;20.10;39.20
10171;DHT22;5127;50.922;6.988;2022-09-03T01:00:05;20.00;39.60
10171;DHT22;5127;50.922;6.988;2022-09-03T01:02:43;20.00;39.40
10171;DHT22;5127;50.922;6.988;2022-09-03T01:05:24;20.00;39.60
10171;DHT22;5127;50.922;6.988;2022-09-03T01:08:01;19.90;39.60
10171;DHT22;5127;50.922;6.988;2022-09-03T01:10:36;19.90;39.80
10171;DHT22;5127;50.922;6.988;2022-09-03T01:13:15;19.80;39.70
10171;DHT22;5127;50.922;6.988;2022-09-03T01:15:51;19.70;40.20
10171;DHT22;5127;50.922;6.988;2022-09-03T01:18:27;19.70;40.10
10171;DHT22;5127;50.922;6.988;2022-09-03T01:21:19;19.70;40.30
10171;DHT22;5127;50.922;6.988;2022-09-03T01:27:08;19.60;40.40
10171;DHT22;5127;50.922;6.988;2022-09-03T01:29:47;19.60;40.80
10171;DHT22;5127;50.922;6.988;2022-09-03T01:32:24;19.50;40.60
10171;DHT22;5127;50.922;6.988;2022-09-03T01:35:00;19.50;40.80
10171;DHT22;5127;50.922;6.988;2022-09-03T01:37:35;19.50;40.70
10171;DHT22;5127;50.922;6.988;2022-09-03T01:40:16;19.40;40.80
10171;DHT22;5127;50.922;6.988;2022-09-03T01:42:54;19.30;41.10
10171;DHT22;5127;50.922;6.988;2022-09-03T01:45:31;19.30;41.20
10171;DHT22;5127;50.922;6.988;2022-09-03T01:48:12;19.20;41.60
10171;DHT22;5127;50.922;6.988;2022-09-03T01:50:45;19.20;41.30
10171;DHT22;5127;50.922;6.988;2022-09-03T01:53:26;19.20;41.50
10171;DHT22;5127;50.922;6.988;2022-09-03T01:56:05;19.10;41.70
10171;DHT22;5127;50.922;6.988;2022-09-03T01:58:38;19.20;41.80
10171;DHT22;5127;50.922;6.988;2022-09-03T02:01:15;19.10;41.50
10171;DHT22;5127;50.922;6.988;2022-09-03T02:03:44;19.00;41.90
10171;DHT22;5127;50.922;6.988;2022-09-03T02:06:12;19.00;41.70
10171;DHT22;5127;50.922;6.988;2022-09-03T02:08:40;18.90;41.80
10171;DHT22;5127;50.922;6.988;2022-09-03T02:11:08;18.90;42.10
10171;DHT22;5127;50.922;6.988;2022-09-03T02:13:38;18.90;42.30
10171;DHT22;5127;50.922;6.988;2022-09-03T02:16:12;18.80;42.40
10171;DHT22;5127;50.922;6.988;2022-09-03T02:18:43;18.80;42.60
10171;DHT22;5127;50.922;6.988;2022-09-03T02:21:13;18.80;42.70
10171;DHT22;5127;50.922;6.988;2022-09-03T02:23:42;18.80;42.50
10171;DHT22;5127;50.922;6.988;2022-09-03T02:26:11;18.70;42.40
10171;DHT22;5127;50.922;6.988;2022-09-03T02:28:40;18.70;42.70
10171;DHT22;5127;50.922;6.988;2022-09-03T02:31:07;18.60;42.70
10171;DHT22;5127;50.922;6.988;2022-09-03T02:33:38;18.60;42.80
10171;DHT22;5127;50.922;6.988;2022-09-03T02:36:08;18.60;43.10
10171;DHT22;5127;50.922;6.988;2022-09-03T02:38:35;18.60;43.20
10171;DHT22;5127;50.922;6.988;2022-09-03T02:41:03;18.60;43.20
10171;DHT22;5127;50.922;6.988;2022-09-03T02:43:36;18.50;43.10
10171;DHT22;5127;50.922;6.988;2022-09-03T02:46:09;18.50;43.60
10171;DHT22;5127;50.922;6.988;2022-09-03T02:48:40;18.50;43.50
10171;DHT22;5127;50.922;6.988;2022-09-03T02:51:07;18.40;43.40
10171;DHT22;5127;50.922;6.988;2022-09-03T02:53:34;18.40;43.50
10171;DHT22;5127;50.922;6.988;2022-09-03T02:56:02;18.40;43.40
10171;DHT22;5127;50.922;6.988;2022-09-03T02:58:29;18.40;43.60
10171;DHT22;5127;50.922;6.988;2022-09-03T03:00:57;18.30;43.60
10171;DHT22;5127;50.922;6.988;2022-09-03T03:03:25;18.40;43.70
10171;DHT22;5127;50.922;6.988;2022-09-03T03:05:54;18.40;43.80
10171;DHT22;5127;50.922;6.988;2022-09-03T03:08:24;18.30;44.10
10171;DHT22;5127;50.922;6.988;2022-09-03T03:10:53;18.30;43.70
10171;DHT22;5127;50.922;6.988;2022-09-03T03:13:22;18.30;43.90
10171;DHT22;5127;50.922;6.988;2022-09-03T03:15:49;18.30;43.80
10171;DHT22;5127;50.922;6.988;2022-09-03T03:18:16;18.30;43.70
10171;DHT22;5127;50.922;6.988;2022-09-03T03:20:43;18.40;43.80
10171;DHT22;5127;50.922;6.988;2022-09-03T03:23:14;18.30;43.50
10171;DHT22;5127;50.922;6.988;2022-09-03T03:25:41;18.20;43.90
10171;DHT22;5127;50.922;6.988;2022-09-03T03:28:08;18.30;43.80
10171;DHT22;5127;50.922;6.988;2022-09-03T03:30:37;18.30;43.90
10171;DHT22;5127;50.922;6.988;2022-09-03T03:33:05;18.30;43.90
10171;DHT22;5127;50.922;6.988;2022-09-03T03:35:32;18.20;43.80
10171;DHT22;5127;50.922;6.988;2022-09-03T03:37:59;18.30;43.90
10171;DHT22;5127;50.922;6.988;2022-09-03T03:40:28;18.30;43.80
10171;DHT22;5127;50.922;6.988;2022-09-03T03:42:56;18.30;43.90
10171;DHT22;5127;50.922;6.988;2022-09-03T03:45:24;18.30;43.80
10171;DHT22;5127;50.922;6.988;2022-09-03T03:47:55;18.30;43.80
10171;DHT22;5127;50.922;6.988;2022-09-03T03:50:22;18.30;43.70
10171;DHT22;5127;50.922;6.988;2022-09-03T03:52:49;18.20;43.70
10171;DHT22;5127;50.922;6.988;2022-09-03T03:55:17;18.30;43.90
10171;DHT22;5127;50.922;6.988;2022-09-03T03:57:45;18.30;43.90
10171;DHT22;5127;50.922;6.988;2022-09-03T04:00:14;18.30;44.00
10171;DHT22;5127;50.922;6.988;2022-09-03T04:02:41;18.30;44.30
10171;DHT22;5127;50.922;6.988;2022-09-03T04:05:08;18.30;43.80
10171;DHT22;5127;50.922;6.988;2022-09-03T04:07:36;18.30;44.00
10171;DHT22;5127;50.922;6.988;2022-09-03T04:10:04;18.20;44.00
10171;DHT22;5127;50.922;6.988;2022-09-03T04:12:31;18.20;44.20
10171;DHT22;5127;50.922;6.988;2022-09-03T04:15:00;18.20;44.30
10171;DHT22;5127;50.922;6.988;2022-09-03T04:17:27;18.20;44.50
10171;DHT22;5127;50.922;6.988;2022-09-03T04:19:54;18.30;44.30
10171;DHT22;5127;50.922;6.988;2022-09-03T04:22:22;18.30;44.40
10171;DHT22;5127;50.922;6.988;2022-09-03T04:24:49;18.20;44.80
10171;DHT22;5127;50.922;6.988;2022-09-03T04:27:16;18.30;44.90
10171;DHT22;5127;50.922;6.988;2022-09-03T04:29:43;18.30;44.30
10171;DHT22;5127;50.922;6.988;2022-09-03T04:32:12;18.40;44.40
10171;DHT22;5127;50.922;6.988;2022-09-03T04:34:57;18.40;44.30
10171;DHT22;5127;50.922;6.988;2022-09-03T04:37:24;18.40;44.20
10171;DHT22;5127;50.922;6.988;2022-09-03T04:39:51;18.40;44.20
10171;DHT22;5127;50.922;6.988;2022-09-03T04:42:19;18.40;44.30
10171;DHT22;5127;50.922;6.988;2022-09-03T04:44:47;18.40;44.30
10171;DHT22;5127;50.922;6.988;2022-09-03T04:47:15;18.50;44.30
10171;DHT22;5127;50.922;6.988;2022-09-03T04:49:43;18.50;44.30
10171;DHT22;5127;50.922;6.988;2022-09-03T04:52:10;18.50;44.40
10171;DHT22;5127;50.922;6.988;2022-09-03T04:54:37;18.50;44.30
10171;DHT22;5127;50.922;6.988;2022-09-03T04:57:05;18.50;44.40
10171;DHT22;5127;50.922;6.988;2022-09-03T04:59:32;18.50;44.40
10171;DHT22;5127;50.922;6.988;2022-09-03T05:01:59;18.60;44.60
10171;DHT22;5127;50.922;6.988;2022-09-03T05:04:28;18.60;44.60
10171;DHT22;5127;50.922;6.988;2022-09-03T05:06:55;18.60;44.50
10171;DHT22;5127;50.922;6.988;2022-09-03T05:09:22;18.60;44.50
10171;DHT22;5127;50.922;6.988;2022-09-03T05:11:49;18.60;44.60
10171;DHT22;5127;50.922;6.988;2022-09-03T05:14:17;18.60;44.40
10171;DHT22;5127;50.922;6.988;2022-09-03T05:16:44;18.60;44.50
10171;DHT22;5127;50.922;6.988;2022-09-03T05:19:11;18.70;44.50
10171;DHT22;5127;50.922;6.988;2022-09-03T05:21:40;18.60;44.40
10171;DHT22;5127;50.922;6.988;2022-09-03T05:24:08;18.70;44.80
10171;DHT22;5127;50.922;6.988;2022-09-03T05:26:38;18.70;44.50
10171;DHT22;5127;50.922;6.988;2022-09-03T05:29:06;18.80;44.50
10171;DHT22;5127;50.922;6.988;2022-09-03T05:31:35;18.80;44.50
10171;DHT22;5127;50.922;6.988;2022-09-03T05:34:04;18.80;44.40
10171;DHT22;5127;50.922;6.988;2022-09-03T05:36:33;18.90;44.50
10171;DHT22;5127;50.922;6.988;2022-09-03T05:39:03;18.90;44.50
10171;DHT22;5127;50.922;6.988;2022-09-03T05:41:31;19.00;44.40
10171;DHT22;5127;50.922;6.988;2022-09-03T05:43:59;19.00;44.30
10171;DHT22;5127;50.922;6.988;2022-09-03T05:46:28;19.00;44.40
10171;DHT22;5127;50.922;6.988;2022-09-03T05:48:57;19.00;44.30
10171;DHT22;5127;50.922;6.988;2022-09-03T05:51:25;19.10;44.40
10171;DHT22;5127;50.922;6.988;2022-09-03T05:53:53;19.10;44.30
10171;DHT22;5127;50.922;6.988;2022-09-03T05:56:23;19.20;44.30
10171;DHT22;5127;50.922;6.988;2022-09-03T05:58:53;19.20;44.40
10171;DHT22;5127;50.922;6.988;2022-09-03T06:01:23;19.30;44.50
10171;DHT22;5127;50.922;6.988;2022-09-03T06:03:54;19.40;44.50
10171;DHT22;5127;50.922;6.988;2022-09-03T06:06:22;19.40;44.50
10171;DHT22;5127;50.922;6.988;2022-09-03T06:08:51;19.50;44.50
10171;DHT22;5127;50.922;6.988;2022-09-03T06:11:18;19.60;44.40
10171;DHT22;5127;50.922;6.988;2022-09-03T06:13:48;19.70;44.50
10171;DHT22;5127;50.922;6.988;2022-09-03T06:16:15;19.70;44.30
10171;DHT22;5127;50.922;6.988;2022-09-03T06:18:42;19.80;44.30
10171;DHT22;5127;50.922;6.988;2022-09-03T06:21:09;19.90;44.30
10171;DHT22;5127;50.922;6.988;2022-09-03T06:23:37;20.00;44.20
10171;DHT22;5127;50.922;6.988;2022-09-03T06:26:05;20.10;44.40
10171;DHT22;5127;50.922;6.988;2022-09-03T06:28:35;20.10;44.10
10171;DHT22;5127;50.922;6.988;2022-09-03T06:31:05;20.20;44.10
10171;DHT22;5127;50.922;6.988;2022-09-03T06:33:35;20.30;44.20
10171;DHT22;5127;50.922;6.988;2022-09-03T06:36:04;20.40;44.10
10171;DHT22;5127;50.922;6.988;2022-09-03T06:38:33;20.40;43.90
10171;DHT22;5127;50.922;6.988;2022-09-03T06:41:03;20.50;44.10
10171;DHT22;5127;50.922;6.988;2022-09-03T06:43:31;20.60;44.00
10171;DHT22;5127;50.922;6.988;2022-09-03T06:46:00;20.70;44.00
10171;DHT22;5127;50.922;6.988;2022-09-03T06:48:31;20.80;44.00
10171;DHT22;5127;50.922;6.988;2022-09-03T06:50:59;20.90;43.90
10171;DHT22;5127;50.922;6.988;2022-09-03T06:53:29;21.00;44.20
10171;DHT22;5127;50.922;6.988;2022-09-03T06:55:58;21.10;44.00
10171;DHT22;5127;50.922;6.988;2022-09-03T06:58:28;21.20;43.80
10171;DHT22;5127;50.922;6.988;2022-09-03T07:01:01;21.30;43.70
10171;DHT22;5127;50.922;6.988;2022-09-03T07:03:29;21.40;43.60
10171;DHT22;5127;50.922;6.988;2022-09-03T07:05:59;21.50;43.50
10171;DHT22;5127;50.922;6.988;2022-09-03T07:08:27;21.60;44.00
10171;DHT22;5127;50.922;6.988;2022-09-03T07:10:57;21.70;43.30
10171;DHT22;5127;50.922;6.988;2022-09-03T07:13:25;21.80;43.30
10171;DHT22;5127;50.922;6.988;2022-09-03T07:15:59;21.90;43.30
10171;DHT22;5127;50.922;6.988;2022-09-03T07:18:27;22.00;43.30
10171;DHT22;5127;50.922;6.988;2022-09-03T07:20:58;22.20;43.90
10171;DHT22;5127;50.922;6.988;2022-09-03T07:23:27;22.50;43.90
10171;DHT22;5127;50.922;6.988;2022-09-03T07:25:55;22.60;43.90
10171;DHT22;5127;50.922;6.988;2022-09-03T07:28:24;22.90;43.50
10171;DHT22;5127;50.922;6.988;2022-09-03T07:30:53;23.00;42.90
10171;DHT22;5127;50.922;6.988;2022-09-03T07:33:20;23.20;42.70
10171;DHT22;5127;50.922;6.988;2022-09-03T07:35:47;23.30;42.70
10171;DHT22;5127;50.922;6.988;2022-09-03T07:38:18;23.40;42.30
10171;DHT22;5127;50.922;6.988;2022-09-03T07:40:45;23.40;42.00
10171;DHT22;5127;50.922;6.988;2022-09-03T07:43:13;23.50;42.10
10171;DHT22;5127;50.922;6.988;2022-09-03T07:45:40;23.60;42.70
10171;DHT22;5127;50.922;6.988;2022-09-03T07:48:10;23.70;42.40
10171;DHT22;5127;50.922;6.988;2022-09-03T07:50:38;23.80;42.50
10171;DHT22;5127;50.922;6.988;2022-09-03T07:53:06;24.10;42.30
10171;DHT22;5127;50.922;6.988;2022-09-03T07:55:34;24.30;42.00
10171;DHT22;5127;50.922;6.988;2022-09-03T07:58:01;24.50;41.90
10171;DHT22;5127;50.922;6.988;2022-09-03T08:00:29;24.70;41.90
10171;DHT22;5127;50.922;6.988;2022-09-03T08:02:58;24.90;42.20
10171;DHT22;5127;50.922;6.988;2022-09-03T08:05:31;25.20;42.60
10171;DHT22;5127;50.922;6.988;2022-09-03T08:07:58;25.50;41.40
10171;DHT22;5127;50.922;6.988;2022-09-03T08:10:26;25.60;40.70
10171;DHT22;5127;50.922;6.988;2022-09-03T08:12:57;25.70;40.10
10171;DHT22;5127;50.922;6.988;2022-09-03T08:15:24;25.80;39.80
10171;DHT22;5127;50.922;6.988;2022-09-03T08:17:52;25.80;39.80
10171;DHT22;5127;50.922;6.988;2022-09-03T08:20:19;25.70;39.50
10171;DHT22;5127;50.922;6.988;2022-09-03T08:22:46;25.70;39.70
10171;DHT22;5127;50.922;6.988;2022-09-03T08:25:14;25.60;39.50
10171;DHT22;5127;50.922;6.988;2022-09-03T08:27:41;25.60;39.20
10171;DHT22;5127;50.922;6.988;2022-09-03T08:30:10;25.50;39.20
10171;DHT22;5127;50.922;6.988;2022-09-03T08:32:38;25.40;39.00
10171;DHT22;5127;50.922;6.988;2022-09-03T08:35:06;25.30;39.10
10171;DHT22;5127;50.922;6.988;2022-09-03T08:37:34;25.20;39.30
10171;DHT22;5127;50.922;6.988;2022-09-03T08:40:02;25.20;39.60
10171;DHT22;5127;50.922;6.988;2022-09-03T08:42:40;25.00;39.70
10171;DHT22;5127;50.922;6.988;2022-09-03T08:45:16;25.00;40.10
10171;DHT22;5127;50.922;6.988;2022-09-03T08:47:47;24.90;40.30
10171;DHT22;5127;50.922;6.988;2022-09-03T08:50:22;24.90;40.60
10171;DHT22;5127;50.922;6.988;2022-09-03T08:52:53;24.90;40.80
10171;DHT22;5127;50.922;6.988;2022-09-03T08:55:25;24.80;40.90
10171;DHT22;5127;50.922;6.988;2022-09-03T08:57:59;24.80;40.90
10171;DHT22;5127;50.922;6.988;2022-09-03T09:00:39;24.70;40.80
10171;DHT22;5127;50.922;6.988;2022-09-03T09:03:25;24.60;40.80
10171;DHT22;5127;50.922;6.988;2022-09-03T09:06:02;24.60;41.00
10171;DHT22;5127;50.922;6.988;2022-09-03T09:08:39;24.50;41.00
10171;DHT22;5127;50.922;6.988;2022-09-03T09:11:13;24.40;41.20
10171;DHT22;5127;50.922;6.988;2022-09-03T09:13:47;24.30;41.00
10171;DHT22;5127;50.922;6.988;2022-09-03T09:16:24;24.30;41.30
10171;DHT22;5127;50.922;6.988;2022-09-03T09:19:05;24.10;42.30
10171;DHT22;5127;50.922;6.988;2022-09-03T09:21:38;24.00;42.60
10171;DHT22;5127;50.922;6.988;2022-09-03T09:24:17;23.90;43.20
10171;DHT22;5127;50.922;6.988;2022-09-03T09:26:46;23.80;43.50
10171;DHT22;5127;50.922;6.988;2022-09-03T09:29:14;23.70;43.30
10171;DHT22;5127;50.922;6.988;2022-09-03T09:31:43;23.70;44.40
10171;DHT22;5127;50.922;6.988;2022-09-03T09:34:10;23.60;44.90
10171;DHT22;5127;50.922;6.988;2022-09-03T09:36:42;23.50;44.80
10171;DHT22;5127;50.922;6.988;2022-09-03T09:39:11;23.40;45.70
10171;DHT22;5127;50.922;6.988;2022-09-03T09:41:41;23.40;45.80
10171;DHT22;5127;50.922;6.988;2022-09-03T09:44:18;23.30;46.00
10171;DHT22;5127;50.922;6.988;2022-09-03T09:46:47;23.30;47.50
10171;DHT22;5127;50.922;6.988;2022-09-03T09:49:28;23.30;47.70
10171;DHT22;5127;50.922;6.988;2022-09-03T09:52:04;23.20;48.20
10171;DHT22;5127;50.922;6.988;2022-09-03T09:54:34;23.10;48.10
10171;DHT22;5127;50.922;6.988;2022-09-03T09:57:02;23.20;47.80
10171;DHT22;5127;50.922;6.988;2022-09-03T09:59:34;23.10;47.50
10171;DHT22;5127;50.922;6.988;2022-09-03T10:02:09;23.10;47.40
10171;DHT22;5127;50.922;6.988;2022-09-03T10:04:38;23.10;48.20
10171;DHT22;5127;50.922;6.988;2022-09-03T10:07:18;23.10;47.70
10171;DHT22;5127;50.922;6.988;2022-09-03T10:09:58;23.10;48.10
10171;DHT22;5127;50.922;6.988;2022-09-03T10:12:29;23.20;48.10
10171;DHT22;5127;50.922;6.988;2022-09-03T10:15:02;23.20;48.40
10171;DHT22;5127;50.922;6.988;2022-09-03T10:17:42;23.30;48.40
10171;DHT22;5127;50.922;6.988;2022-09-03T10:20:14;23.40;48.40
10171;DHT22;5127;50.922;6.988;2022-09-03T10:23:06;23.60;48.00
10171;DHT22;5127;50.922;6.988;2022-09-03T10:25:39;23.70;47.80
10171;DHT22;5127;50.922;6.988;2022-09-03T10:28:12;23.80;47.40
10171;DHT22;5127;50.922;6.988;2022-09-03T10:30:51;23.90;47.10
10171;DHT22;5127;50.922;6.988;2022-09-03T10:33:26;24.00;47.10
10171;DHT22;5127;50.922;6.988;2022-09-03T10:36:08;24.10;48.20
10171;DHT22;5127;50.922;6.988;2022-09-03T10:38:38;24.20;47.20
10171;DHT22;5127;50.922;6.988;2022-09-03T10:41:17;24.30;46.90
10171;DHT22;5127;50.922;6.988;2022-09-03T10:44:00;24.50;46.60
10171;DHT22;5127;50.922;6.988;2022-09-03T10:46:39;24.60;46.40
10171;DHT22;5127;50.922;6.988;2022-09-03T10:49:19;24.80;46.40
10171;DHT22;5127;50.922;6.988;2022-09-03T10:51:55;24.90;45.90
10171;DHT22;5127;50.922;6.988;2022-09-03T10:54:31;25.00;45.90
10171;DHT22;5127;50.922;6.988;2022-09-03T10:57:14;25.10;45.60
10171;DHT22;5127;50.922;6.988;2022-09-03T10:59:58;25.20;45.40
10171;DHT22;5127;50.922;6.988;2022-09-03T11:05:23;25.40;45.40
10171;DHT22;5127;50.922;6.988;2022-09-03T11:07:58;25.40;45.20
10171;DHT22;5127;50.922;6.988;2022-09-03T11:10:29;25.50;45.20
10171;DHT22;5127;50.922;6.988;2022-09-03T11:13:02;25.60;45.00
10171;DHT22;5127;50.922;6.988;2022-09-03T11:15:34;25.60;44.90
10171;DHT22;5127;50.922;6.988;2022-09-03T11:18:09;25.60;44.80
10171;DHT22;5127;50.922;6.988;2022-09-03T11:20:41;25.60;44.50
10171;DHT22;5127;50.922;6.988;2022-09-03T11:23:10;25.70;44.60
10171;DHT22;5127;50.922;6.988;2022-09-03T11:25:42;25.70;44.60
10171;DHT22;5127;50.922;6.988;2022-09-03T11:28:20;25.70;44.50
10171;DHT22;5127;50.922;6.988;2022-09-03T11:31:03;25.70;44.50
10171;DHT22;5127;50.922;6.988;2022-09-03T11:33:33;25.80;44.30
10171;DHT22;5127;50.922;6.988;2022-09-03T11:36:05;25.80;44.70
10171;DHT22;5127;50.922;6.988;2022-09-03T11:38:32;25.80;44.60
10171;DHT22;5127;50.922;6.988;2022-09-03T11:41:03;25.80;44.60
10171;DHT22;5127;50.922;6.988;2022-09-03T11:43:37;25.90;44.60
10171;DHT22;5127;50.922;6.988;2022-09-03T11:46:26;25.90;44.40
10171;DHT22;5127;50.922;6.988;2022-09-03T11:48:55;25.90;44.20
10171;DHT22;5127;50.922;6.988;2022-09-03T11:51:32;26.00;44.30
10171;DHT22;5127;50.922;6.988;2022-09-03T11:54:04;26.00;44.30
10171;DHT22;5127;50.922;6.988;2022-09-03T11:56:32;26.00;44.50
10171;DHT22;5127;50.922;6.988;2022-09-03T11:59:15;26.00;44.30
10171;DHT22;5127;50.922;6.988;2022-09-03T12:01:49;26.00;44.30
10171;DHT22;5127;50.922;6.988;2022-09-03T12:04:21;26.00;44.40
10171;DHT22;5127;50.922;6.988;2022-09-03T12:07:08;26.00;44.60
10171;DHT22;5127;50.922;6.988;2022-09-03T12:09:52;26.00;44.60
10171;DHT22;5127;50.922;6.988;2022-09-03T12:12:42;26.10;44.70
10171;DHT22;5127;50.922;6.988;2022-09-03T12:15:20;26.10;44.50
10171;DHT22;5127;50.922;6.988;2022-09-03T12:17:52;26.10;44.60
10171;DHT22;5127;50.922;6.988;2022-09-03T12:20:34;26.20;44.70
10171;DHT22;5127;50.922;6.988;2022-09-03T12:23:02;26.20;45.40
10171;DHT22;5127;50.922;6.988;2022-09-03T12:25:30;26.20;44.70
10171;DHT22;5127;50.922;6.988;2022-09-03T12:28:00;26.30;44.60
10171;DHT22;5127;50.922;6.988;2022-09-03T12:30:29;26.30;45.10
10171;DHT22;5127;50.922;6.988;2022-09-03T12:33:03;26.30;44.40
10171;DHT22;5127;50.922;6.988;2022-09-03T12:35:31;26.40;44.40
10171;DHT22;5127;50.922;6.988;2022-09-03T12:37:58;26.40;44.40
10171;DHT22;5127;50.922;6.988;2022-09-03T12:40:28;26.40;44.30
10171;DHT22;5127;50.922;6.988;2022-09-03T12:43:11;26.40;44.40
10171;DHT22;5127;50.922;6.988;2022-09-03T12:45:42;26.50;44.40
10171;DHT22;5127;50.922;6.988;2022-09-03T12:48:12;26.50;44.50
10171;DHT22;5127;50.922;6.988;2022-09-03T12:50:42;26.50;44.50
10171;DHT22;5127;50.922;6.988;2022-09-03T12:53:12;26.60;44.60
10171;DHT22;5127;50.922;6.988;2022-09-03T12:55:44;26.60;44.60
10171;DHT22;5127;50.922;6.988;2022-09-03T12:58:16;26.70;44.60
10171;DHT22;5127;50.922;6.988;2022-09-03T13:00:46;26.70;44.50
10171;DHT22;5127;50.922;6.988;2022-09-03T13:03:18;26.70;44.50
10171;DHT22;5127;50.922;6.988;2022-09-03T13:05:49;26.80;44.50
10171;DHT22;5127;50.922;6.988;2022-09-03T13:08:20;26.80;44.50
10171;DHT22;5127;50.922;6.988;2022-09-03T13:10:52;26.80;44.40
10171;DHT22;5127;50.922;6.988;2022-09-03T13:13:23;26.80;44.60
10171;DHT22;5127;50.922;6.988;2022-09-03T13:16:06;26.80;44.50
10171;DHT22;5127;50.922;6.988;2022-09-03T13:18:43;26.80;44.60
10171;DHT22;5127;50.922;6.988;2022-09-03T13:21:17;26.90;44.70
10171;DHT22;5127;50.922;6.988;2022-09-03T13:24:06;26.90;44.60
10171;DHT22;5127;50.922;6.988;2022-09-03T13:26:44;26.90;44.60
10171;DHT22;5127;50.922;6.988;2022-09-03T13:29:41;26.90;44.60
10171;DHT22;5127;50.922;6.988;2022-09-03T13:32:24;27.00;44.60
10171;DHT22;5127;50.922;6.988;2022-09-03T13:34:58;27.10;44.70
10171;DHT22;5127;50.922;6.988;2022-09-03T13:37:31;27.10;44.70
10171;DHT22;5127;50.922;6.988;2022-09-03T13:40:09;27.10;44.70
10171;DHT22;5127;50.922;6.988;2022-09-03T13:42:47;27.10;44.60
10171;DHT22;5127;50.922;6.988;2022-09-03T13:45:22;27.20;44.60
10171;DHT22;5127;50.922;6.988;2022-09-03T13:47:57;27.20;44.70
10171;DHT22;5127;50.922;6.988;2022-09-03T13:50:47;27.20;44.50
10171;DHT22;5127;50.922;6.988;2022-09-03T13:53:21;27.30;44.60
10171;DHT22;5127;50.922;6.988;2022-09-03T13:55:53;27.30;44.50
10171;DHT22;5127;50.922;6.988;2022-09-03T13:58:28;27.30;44.60
10171;DHT22;5127;50.922;6.988;2022-09-03T14:01:07;27.30;44.60
10171;DHT22;5127;50.922;6.988;2022-09-03T14:03:44;27.30;44.50
10171;DHT22;5127;50.922;6.988;2022-09-03T14:06:19;27.30;44.50
10171;DHT22;5127;50.922;6.988;2022-09-03T14:08:59;27.30;44.60
10171;DHT22;5127;50.922;6.988;2022-09-03T14:11:33;27.40;44.60
10171;DHT22;5127;50.922;6.988;2022-09-03T14:14:12;27.40;44.50
10171;DHT22;5127;50.922;6.988;2022-09-03T14:16:47;27.40;44.40
10171;DHT22;5127;50.922;6.988;2022-09-03T14:19:22;27.40;44.50
10171;DHT22;5127;50.922;6.988;2022-09-03T14:22:03;27.40;44.50
10171;DHT22;5127;50.922;6.988;2022-09-03T14:24:40;27.40;44.40
10171;DHT22;5127;50.922;6.988;2022-09-03T14:27:10;27.50;44.50
10171;DHT22;5127;50.922;6.988;2022-09-03T14:29:49;27.50;44.40
10171;DHT22;5127;50.922;6.988;2022-09-03T14:32:29;27.50;44.20
10171;DHT22;5127;50.922;6.988;2022-09-03T14:35:27;27.60;44.20
10171;DHT22;5127;50.922;6.988;2022-09-03T14:38:16;27.60;44.10
10171;DHT22;5127;50.922;6.988;2022-09-03T14:40:49;27.70;44.80
10171;DHT22;5127;50.922;6.988;2022-09-03T14:43:51;27.70;44.10
10171;DHT22;5127;50.922;6.988;2022-09-03T14:46:34;27.80;44.10
10171;DHT22;5127;50.922;6.988;2022-09-03T14:49:36;27.80;44.00
10171;DHT22;5127;50.922;6.988;2022-09-03T14:52:17;27.80;44.00
10171;DHT22;5127;50.922;6.988;2022-09-03T14:55:00;27.80;44.00
10171;DHT22;5127;50.922;6.988;2022-09-03T14:57:46;27.80;44.00
10171;DHT22;5127;50.922;6.988;2022-09-03T15:00:16;27.80;44.00
10171;DHT22;5127;50.922;6.988;2022-09-03T15:02:57;27.90;44.10
10171;DHT22;5127;50.922;6.988;2022-09-03T15:05:41;27.90;44.00
10171;DHT22;5127;50.922;6.988;2022-09-03T15:08:22;27.90;43.90
10171;DHT22;5127;50.922;6.988;2022-09-03T15:10:57;28.00;43.80
10171;DHT22;5127;50.922;6.988;2022-09-03T15:13:28;28.00;43.70
10171;DHT22;5127;50.922;6.988;2022-09-03T15:16:10;28.10;43.50
10171;DHT22;5127;50.922;6.988;2022-09-03T15:18:55;28.10;43.50
10171;DHT22;5127;50.922;6.988;2022-09-03T15:21:38;28.10;43.40
10171;DHT22;5127;50.922;6.988;2022-09-03T15:24:16;28.20;43.40
10171;DHT22;5127;50.922;6.988;2022-09-03T15:26:56;28.20;43.30
10171;DHT22;5127;50.922;6.988;2022-09-03T15:29:46;28.20;43.40
10171;DHT22;5127;50.922;6.988;2022-09-03T15:32:21;28.20;43.30
10171;DHT22;5127;50.922;6.988;2022-09-03T15:35:07;28.30;43.30
10171;DHT22;5127;50.922;6.988;2022-09-03T15:37:41;28.30;43.30
10171;DHT22;5127;50.922;6.988;2022-09-03T15:40:26;28.30;43.20
10171;DHT22;5127;50.922;6.988;2022-09-03T15:42:59;28.40;43.20
10171;DHT22;5127;50.922;6.988;2022-09-03T15:45:34;28.40;43.20
10171;DHT22;5127;50.922;6.988;2022-09-03T15:48:16;28.40;43.00
10171;DHT22;5127;50.922;6.988;2022-09-03T15:50:53;28.40;43.00
10171;DHT22;5127;50.922;6.988;2022-09-03T15:53:29;28.40;42.80
10171;DHT22;5127;50.922;6.988;2022-09-03T15:56:06;28.50;43.00
10171;DHT22;5127;50.922;6.988;2022-09-03T15:58:37;28.40;42.70
10171;DHT22;5127;50.922;6.988;2022-09-03T16:01:18;28.40;42.70
10171;DHT22;5127;50.922;6.988;2022-09-03T16:04:01;28.40;42.70
10171;DHT22;5127;50.922;6.988;2022-09-03T16:06:44;28.40;42.70
10171;DHT22;5127;50.922;6.988;2022-09-03T16:09:26;28.40;42.70
10171;DHT22;5127;50.922;6.988;2022-09-03T16:12:00;28.40;42.80
10171;DHT22;5127;50.922;6.988;2022-09-03T16:14:36;28.30;42.50
10171;DHT22;5127;50.922;6.988;2022-09-03T16:17:08;28.30;42.70
10171;DHT22;5127;50.922;6.988;2022-09-03T16:19:44;28.30;43.00
10171;DHT22;5127;50.922;6.988;2022-09-03T16:22:21;28.20;43.20
10171;DHT22;5127;50.922;6.988;2022-09-03T16:24:55;28.20;43.40
10171;DHT22;5127;50.922;6.988;2022-09-03T16:27:29;28.20;43.50